Time;durP1;ratioP1;P1;durP2;ratioP2;P2;SDS_P1;SDS_P2;PMS_P1;PMS_P2;Temp;Humidity;BMP_temperature;BMP_pressure;BME280_temperature;BME280_humidity;BME280_pressure;Samples;Min_cycle;Max_cycle;Signal;HPM_P1;HPM_P2
2022/04/21 00:00:24;;;;;;;;;;;;;;;6.78;47.01;95858.63;5115293;28;19956;-72
2022/04/21 00:02:50;;;;;;;;;;;;;;;6.74;46.36;95854.84;5113748;28;20066;-71
2022/04/21 00:05:16;;;;;;;;;;;;;;;6.69;47.80;95855.44;5115126;28;19978;-72
2022/04/21 00:07:42;;;;;;;;;;;;;;;6.68;48.57;95855.69;5115545;28;19941;-71
2022/04/21 00:10:08;;;;;;;;;;;;;;;6.69;47.41;95839.03;5114972;28;19964;-71
2022/04/21 00:12:34;;;;;;;;;;;;;;;6.69;47.13;95844.25;5115081;28;19945;-71
2022/04/21 00:15:01;;;;;;;;;;;;;;;6.65;49.16;95854.25;5113643;28;19982;-71
2022/04/21 00:17:27;;;;;;;;;;;;;;;6.63;47.25;95842.47;5114795;28;19953;-72
2022/04/21 00:19:52;;;;;;;;;;;;;;;6.61;48.13;95847.06;5097036;28;19956;-72
2022/04/21 00:25:03;;;;;;;;;;;;;;;6.55;49.53;95851.34;5114956;28;19962;-72
2022/04/21 00:27:29;;;;;;;;;;;;;;;6.54;48.12;95838.50;5114792;28;19956;-71
2022/04/21 00:29:58;;;;;;;;;;;;;;;6.51;48.65;95847.53;5114691;28;20041;-70
2022/04/21 00:32:24;;;;;;;;;;;;;;;6.50;48.43;95835.50;5114531;28;20409;-71
2022/04/21 00:34:49;;;;;;;;;;;;;;;6.49;49.05;95841.75;5114414;28;20019;-71
2022/04/21 00:37:15;;;;;;;;;;;;;;;6.51;48.36;95844.94;5114775;28;19992;-71
2022/04/21 00:39:41;;;;;;;;;;;;;;;6.52;48.22;95843.13;5114510;28;19990;-71
2022/04/21 00:42:25;;;;;;;;;;;;;;;6.57;48.32;95846.69;5114525;28;19949;-70
2022/04/21 00:44:51;;;;;;;;;;;;;;;6.60;48.30;95840.28;5114493;28;20307;-70
2022/04/21 00:47:18;;;;;;;;;;;;;;;6.60;48.67;95841.06;5114336;28;20053;-70
2022/04/21 00:49:44;;;;;;;;;;;;;;;6.58;48.57;95845.69;5114674;28;19956;-70
2022/04/21 00:52:10;;;;;;;;;;;;;;;6.52;49.02;95841.31;5114284;28;19952;-70
2022/04/21 00:54:36;;;;;;;;;;;;;;;6.48;48.84;95842.72;5114447;28;20310;-72
2022/04/21 00:57:03;;;;;;;;;;;;;;;6.43;48.81;95845.16;5100523;28;19993;-71
2022/04/21 00:59:30;;;;;;;;;;;;;;;6.43;48.85;95845.16;5114370;28;19971;-71
2022/04/21 01:04:41;;;;;;;;;;;;;;;6.40;48.73;95841.16;5113991;28;19983;-72
2022/04/21 01:07:09;;;;;;;;;;;;;;;6.39;48.75;95841.38;5114258;28;19955;-71
2022/04/21 01:09:36;;;;;;;;;;;;;;;6.35;49.08;95833.16;5114097;28;19957;-71
2022/04/21 01:12:03;;;;;;;;;;;;;;;6.32;49.28;95840.56;5113985;28;19948;-71
2022/04/21 01:14:29;;;;;;;;;;;;;;;6.29;49.62;95841.78;5114178;28;19967;-71
2022/04/21 01:16:58;;;;;;;;;;;;;;;6.24;49.38;95839.03;5113868;28;19955;-71
2022/04/21 01:19:24;;;;;;;;;;;;;;;6.18;49.58;95835.41;5113960;28;19951;-71
2022/04/21 01:21:50;;;;;;;;;;;;;;;6.13;49.73;95835.22;5113995;28;19954;-71
2022/04/21 01:24:16;;;;;;;;;;;;;;;6.08;49.85;95842.84;5113919;28;19953;-71
2022/04/21 01:26:42;;;;;;;;;;;;;;;6.03;50.71;95837.47;5113067;28;19959;-71
2022/04/21 01:29:08;;;;;;;;;;;;;;;5.95;50.74;95832.47;5113697;28;20090;-71
2022/04/21 01:31:33;;;;;;;;;;;;;;;5.89;51.24;95834.84;5113134;28;19949;-71
2022/04/21 01:33:59;;;;;;;;;;;;;;;5.86;50.93;95830.06;5116700;28;19985;-71
2022/04/21 01:36:25;;;;;;;;;;;;;;;5.82;51.92;95835.88;5117951;28;20035;-71
2022/04/21 01:41:35;;;;;;;;;;;;;;;5.75;52.15;95824.66;5103867;28;19957;-71
2022/04/21 01:44:02;;;;;;;;;;;;;;;5.75;52.19;95829.88;5116688;28;19989;-71
2022/04/21 01:46:28;;;;;;;;;;;;;;;5.78;51.87;95832.88;5117991;28;20321;-71
2022/04/21 01:48:54;;;;;;;;;;;;;;;5.80;51.47;95825.66;5117607;28;19964;-71
2022/04/21 01:51:19;;;;;;;;;;;;;;;5.80;51.68;95823.06;5117702;28;19962;-71
2022/04/21 01:53:45;;;;;;;;;;;;;;;5.77;51.80;95828.66;5075556;28;19951;-71
2022/04/21 01:56:11;;;;;;;;;;;;;;;5.76;52.16;95827.06;5095351;28;19972;-71
2022/04/21 01:58:37;;;;;;;;;;;;;;;5.72;51.56;95822.47;5117622;28;19956;-71
2022/04/21 02:01:03;;;;;;;;;;;;;;;5.67;51.94;95816.09;5117631;28;19957;-72
2022/04/21 02:03:30;;;;;;;;;;;;;;;5.62;52.14;95815.88;5117513;28;19974;-71
2022/04/21 02:05:56;;;;;;;;;;;;;;;5.59;53.26;95820.69;5117468;28;20436;-71
2022/04/21 02:08:22;;;;;;;;;;;;;;;5.54;52.68;95821.28;5117469;28;20046;-71
2022/04/21 02:10:48;;;;;;;;;;;;;;;5.49;52.56;95808.88;5098988;28;19962;-71
2022/04/21 02:13:14;;;;;;;;;;;;;;;5.48;52.49;95803.88;5117455;28;19955;-71
2022/04/21 02:15:40;;;;;;;;;;;;;;;5.44;54.17;95813.91;5117285;28;20018;-71
2022/04/21 02:18:06;;;;;;;;;;;;;;;5.44;52.39;95816.50;5116083;28;19951;-71
2022/04/21 02:20:32;;;;;;;;;;;;;;;5.41;53.11;95814.28;5117104;28;20013;-72
2022/04/21 02:22:58;;;;;;;;;;;;;;;5.31;53.02;95811.28;5099297;28;20017;-72
2022/04/21 02:25:24;;;;;;;;;;;;;;;5.21;54.84;95816.91;5117069;28;20453;-72
2022/04/21 02:27:50;;;;;;;;;;;;;;;5.14;53.91;95817.88;5117310;28;20009;-71
2022/04/21 02:30:17;;;;;;;;;;;;;;;5.09;53.81;95810.69;5117043;28;19955;-71
2022/04/21 02:32:44;;;;;;;;;;;;;;;5.07;54.29;95820.47;5116878;28;19958;-75
2022/04/21 02:35:11;;;;;;;;;;;;;;;5.01;54.70;95814.28;5116944;28;19966;-71
2022/04/21 02:37:38;;;;;;;;;;;;;;;5.02;54.61;95812.50;5116878;28;19947;-71
2022/04/21 02:40:05;;;;;;;;;;;;;;;5.03;54.07;95808.88;5116826;28;19956;-71
2022/04/21 02:42:31;;;;;;;;;;;;;;;5.04;54.60;95807.88;5116710;28;19958;-71
2022/04/21 02:44:57;;;;;;;;;;;;;;;5.06;56.00;95821.47;5115685;28;20442;-73
2022/04/21 02:47:23;;;;;;;;;;;;;;;5.09;54.81;95813.28;5117068;28;20042;-71
2022/04/21 02:49:50;;;;;;;;;;;;;;;5.13;55.04;95805.91;5116518;28;19952;-71
2022/04/21 02:52:17;;;;;;;;;;;;;;;5.15;55.07;95801.31;5116502;28;19955;-71
2022/04/21 02:57:31;;;;;;;;;;;;;;;5.14;54.57;95791.91;5116731;28;20322;-72
2022/04/21 02:59:58;;;;;;;;;;;;;;;5.12;54.31;95793.91;5116673;28;19955;-71
2022/04/21 03:02:24;;;;;;;;;;;;;;;5.07;56.27;95802.28;5116362;28;20506;-71
2022/04/21 03:04:52;;;;;;;;;;;;;;;4.98;55.45;95793.09;5116674;28;19989;-71
2022/04/21 03:07:20;;;;;;;;;;;;;;;4.90;56.45;95795.88;5116268;28;19950;-71
2022/04/21 03:09:46;;;;;;;;;;;;;;;4.85;56.01;95786.88;5116274;28;19958;-71
2022/04/21 03:12:12;;;;;;;;;;;;;;;4.86;55.95;95795.47;5116417;28;19954;-71
2022/04/21 03:14:38;;;;;;;;;;;;;;;4.86;56.82;95790.28;5116002;28;19960;-72
2022/04/21 03:17:04;;;;;;;;;;;;;;;4.86;56.06;95795.47;5116249;28;19953;-71
2022/04/21 03:19:30;;;;;;;;;;;;;;;4.83;56.12;95795.84;5116174;28;19947;-71
2022/04/21 03:24:41;;;;;;;;;;;;;;;4.85;56.62;95799.06;5116025;28;19961;-72
2022/04/21 03:27:07;;;;;;;;;;;;;;;4.87;56.77;95791.88;5115568;28;19945;-72
2022/04/21 03:29:37;;;;;;;;;;;;;;;4.88;56.52;95794.28;5115994;28;20420;-71
2022/04/21 03:32:07;;;;;;;;;;;;;;;4.86;56.34;95790.28;5099924;28;19948;-71
2022/04/21 03:34:33;;;;;;;;;;;;;;;4.84;57.42;95797.47;5115916;28;19972;-71
2022/04/21 03:36:58;;;;;;;;;;;;;;;4.80;56.46;95786.66;5116084;28;19961;-71
2022/04/21 03:39:24;;;;;;;;;;;;;;;4.77;56.56;95791.47;5115672;28;19948;-71
2022/04/21 03:41:53;;;;;;;;;;;;;;;4.74;57.18;95789.25;5115706;28;19956;-72
2022/04/21 03:44:20;;;;;;;;;;;;;;;4.74;57.08;95795.25;5115521;28;19962;-71
2022/04/21 03:46:46;;;;;;;;;;;;;;;4.71;56.70;95792.25;5115661;28;19960;-71
2022/04/21 03:49:11;;;;;;;;;;;;;;;4.70;56.62;95786.25;5115616;28;19949;-70
2022/04/21 03:51:37;;;;;;;;;;;;;;;4.70;56.51;95791.44;5115246;28;20328;-71
2022/04/21 03:54:04;;;;;;;;;;;;;;;4.69;57.04;95795.03;5115397;28;19995;-71
2022/04/21 03:56:30;;;;;;;;;;;;;;;4.67;56.78;95789.25;5096836;28;19953;-71
2022/04/21 03:58:59;;;;;;;;;;;;;;;4.66;57.12;95793.66;5115436;28;20291;-71
2022/04/21 04:01:25;;;;;;;;;;;;;;;4.64;57.27;95798.25;5115255;28;19973;-72
2022/04/21 04:03:51;;;;;;;;;;;;;;;4.61;56.95;95793.41;5096651;28;19985;-71
2022/04/21 04:11:46;;;;;;;;;;;;;;;4.44;57.15;95799.97;5115208;28;20317;-71
2022/04/21 04:14:12;;;;;;;;;;;;;;;4.41;56.76;95795.97;5115033;28;19962;-71
2022/04/21 04:16:38;;;;;;;;;;;;;;;4.39;57.29;95803.16;5115221;28;19987;-71
2022/04/21 04:19:05;;;;;;;;;;;;;;;4.35;57.41;95796.75;5114764;28;19955;-71
2022/04/21 04:21:31;;;;;;;;;;;;;;;4.31;57.07;95798.13;5114992;28;20300;-71
2022/04/21 04:23:58;;;;;;;;;;;;;;;4.27;57.33;95792.53;5114896;28;19948;-71
2022/04/21 04:26:23;;;;;;;;;;;;;;;4.26;57.72;95800.50;5114850;28;20073;-71
2022/04/21 04:28:49;;;;;;;;;;;;;;;4.21;58.03;95795.88;5114679;28;20396;-71
2022/04/21 04:31:15;;;;;;;;;;;;;;;4.19;57.78;95794.50;5114791;28;19959;-71
2022/04/21 04:33:41;;;;;;;;;;;;;;;4.17;58.05;95799.88;5114939;28;19961;-71
2022/04/21 04:36:10;;;;;;;;;;;;;;;4.15;58.45;95801.06;5114417;28;19971;-71
2022/04/21 04:38:39;;;;;;;;;;;;;;;4.14;58.46;95804.66;5114460;28;19954;-72
2022/04/21 04:43:50;;;;;;;;;;;;;;;4.13;58.67;95808.22;5114455;28;19956;-71
2022/04/21 04:49:00;;;;;;;;;;;;;;;4.13;58.73;95809.03;5114331;28;20409;-71
2022/04/21 04:51:27;;;;;;;;;;;;;;;4.15;58.73;95794.06;5114554;28;19964;-71
2022/04/21 04:53:53;;;;;;;;;;;;;;;4.16;59.17;95798.28;5114446;28;19965;-71
2022/04/21 04:56:23;;;;;;;;;;;;;;;4.22;59.17;95797.50;5114213;28;19975;-71
2022/04/21 04:58:49;;;;;;;;;;;;;;;4.46;59.14;95803.19;5114163;28;20324;-71
2022/04/21 05:01:18;;;;;;;;;;;;;;;4.85;58.65;95796.47;5114192;28;19958;-71
2022/04/21 05:03:44;;;;;;;;;;;;;;;5.28;58.16;95796.91;5113922;28;19984;-71
2022/04/21 05:06:10;;;;;;;;;;;;;;;5.74;56.92;95791.88;5114872;28;19952;-71
2022/04/21 05:08:35;;;;;;;;;;;;;;;6.21;56.59;95772.50;5113596;28;20378;-72
2022/04/21 05:11:03;;;;;;;;;;;;;;;6.67;55.44;95768.88;5113970;28;20287;-71
2022/04/21 05:13:29;;;;;;;;;;;;;;;7.16;54.40;95765.75;5114043;28;20363;-71
2022/04/21 05:15:55;;;;;;;;;;;;;;;7.61;53.94;95770.78;5113814;28;19964;-71
2022/04/21 05:18:21;;;;;;;;;;;;;;;7.98;52.52;95758.56;5113995;28;20430;-71
2022/04/21 05:20:47;;;;;;;;;;;;;;;8.31;51.44;95750.31;5114199;28;20493;-71
2022/04/21 05:23:16;;;;;;;;;;;;;;;8.65;50.61;95745.50;5114487;28;19966;-72
2022/04/21 05:25:42;;;;;;;;;;;;;;;9.01;50.10;95733.31;5113686;28;20315;-72
2022/04/21 05:28:09;;;;;;;;;;;;;;;9.35;49.30;95721.28;5114493;28;19958;-73
2022/04/21 05:30:57;;;;;;;;;;;;;;;9.67;48.73;95726.16;5114225;28;19953;-71
2022/04/21 05:33:25;;;;;;;;;;;;;;;9.95;48.51;95722.81;5114253;28;19960;-72
2022/04/21 05:35:51;;;;;;;;;;;;;;;10.24;48.06;95714.19;5113995;28;20420;-71
2022/04/21 05:38:19;;;;;;;;;;;;;;;10.55;47.42;95718.19;5113369;28;19949;-71
2022/04/21 05:40:45;;;;;;;;;;;;;;;10.70;46.87;95718.44;5114504;28;19956;-74
2022/04/21 05:43:12;;;;;;;;;;;;;;;10.74;46.82;95718.78;5078629;28;19955;-71
2022/04/21 05:45:38;;;;;;;;;;;;;;;10.75;46.74;95713.31;5113918;28;19947;-72
2022/04/21 05:48:04;;;;;;;;;;;;;;;10.94;46.62;95715.69;5113841;28;19973;-72
2022/04/21 05:50:31;;;;;;;;;;;;;;;11.13;46.39;95711.81;5113935;28;19961;-74
2022/04/21 05:52:58;;;;;;;;;;;;;;;11.30;46.02;95713.63;5113882;28;19946;-72
2022/04/21 05:55:24;;;;;;;;;;;;;;;11.50;45.85;95708.66;5113764;28;19967;-71
2022/04/21 05:57:50;;;;;;;;;;;;;;;11.63;45.50;95698.84;5113676;28;19952;-72
2022/04/21 06:00:16;;;;;;;;;;;;;;;11.69;45.20;95703.91;5096008;28;20466;-71
2022/04/21 06:02:42;;;;;;;;;;;;;;;11.73;44.90;95702.41;5113571;28;20300;-71
2022/04/21 06:05:08;;;;;;;;;;;;;;;11.88;45.17;95706.25;5113718;28;19960;-71
2022/04/21 06:07:34;;;;;;;;;;;;;;;12.09;44.57;95702.06;5113851;28;19948;-70
2022/04/21 06:10:00;;;;;;;;;;;;;;;12.23;44.50;95694.63;5114360;28;20483;-70
2022/04/21 06:12:26;;;;;;;;;;;;;;;12.41;43.68;95701.38;5114535;28;19955;-71
2022/04/21 06:14:52;;;;;;;;;;;;;;;12.54;43.75;95691.25;5078817;28;20009;-70
2022/04/21 06:17:18;;;;;;;;;;;;;;;12.69;43.44;95689.81;5113132;28;19950;-70
2022/04/21 06:19:44;;;;;;;;;;;;;;;12.85;43.46;95696.81;5115686;28;19956;-71
2022/04/21 06:22:09;;;;;;;;;;;;;;;13.03;43.44;95695.63;5099405;28;19958;-70
2022/04/21 06:24:35;;;;;;;;;;;;;;;13.29;43.04;95696.66;5117542;28;19956;-71
2022/04/21 06:27:03;;;;;;;;;;;;;;;13.42;42.35;95700.69;5117578;28;19962;-71
2022/04/21 06:29:29;;;;;;;;;;;;;;;13.67;42.07;95700.03;5117098;28;20385;-71
2022/04/21 06:31:56;;;;;;;;;;;;;;;13.83;41.86;95692.97;5117515;28;19955;-71
2022/04/21 06:34:24;;;;;;;;;;;;;;;13.99;41.74;95696.50;5117074;28;19948;-70
2022/04/21 06:36:50;;;;;;;;;;;;;;;14.17;41.24;95697.84;5117036;28;19973;-70
2022/04/21 06:39:16;;;;;;;;;;;;;;;14.22;41.23;95700.53;5117346;28;19961;-70
2022/04/21 06:41:42;;;;;;;;;;;;;;;14.25;40.63;95700.00;5116844;28;19997;-70
2022/04/21 06:49:36;;;;;;;;;;;;;;;14.05;40.84;95702.56;5116683;28;19957;-72
2022/04/21 06:52:02;;;;;;;;;;;;;;;13.81;39.38;95695.88;5117335;28;20033;-71
2022/04/21 06:54:28;;;;;;;;;;;;;;;13.48;40.68;95698.84;5116608;28;19949;-71
2022/04/21 06:56:54;;;;;;;;;;;;;;;13.45;41.73;95709.91;5116493;28;19967;-72
2022/04/21 06:59:20;;;;;;;;;;;;;;;13.47;42.88;95715.72;5116621;28;19952;-72
2022/04/21 07:01:46;;;;;;;;;;;;;;;13.57;42.04;95713.94;5116526;28;19961;-73
2022/04/21 07:04:13;;;;;;;;;;;;;;;13.52;41.28;95706.00;5116002;28;19977;-72
2022/04/21 07:06:39;;;;;;;;;;;;;;;13.52;41.55;95710.47;5098531;28;19963;-72
2022/04/21 07:09:05;;;;;;;;;;;;;;;13.64;41.35;95710.28;5116399;28;19947;-72
2022/04/21 07:11:31;;;;;;;;;;;;;;;13.77;41.31;95705.34;5116842;28;20405;-72
2022/04/21 07:13:57;;;;;;;;;;;;;;;13.81;40.80;95702.97;5116316;28;19956;-72
2022/04/21 07:16:23;;;;;;;;;;;;;;;13.81;40.37;95702.97;5116155;28;19965;-73
2022/04/21 07:18:49;;;;;;;;;;;;;;;13.88;40.67;95705.38;5098035;28;19949;-73
2022/04/21 07:21:16;;;;;;;;;;;;;;;13.90;40.63;95705.91;5098133;28;19962;-72
2022/04/21 07:23:42;;;;;;;;;;;;;;;13.78;40.47;95706.94;5116089;28;19956;-72
2022/04/21 07:26:08;;;;;;;;;;;;;;;13.84;40.69;95704.31;5115694;28;19956;-72
2022/04/21 07:28:34;;;;;;;;;;;;;;;13.95;40.73;95703.31;5115978;28;20001;-72
2022/04/21 07:31:00;;;;;;;;;;;;;;;14.06;40.39;95699.66;5115379;28;19987;-72
2022/04/21 07:33:26;;;;;;;;;;;;;;;13.98;40.67;95702.78;5115941;28;19955;-76
2022/04/21 07:35:51;;;;;;;;;;;;;;;13.96;40.47;95704.91;5115388;28;20028;-72
2022/04/21 07:38:17;;;;;;;;;;;;;;;14.00;40.96;95706.75;5115744;28;20025;-72
2022/04/21 07:40:43;;;;;;;;;;;;;;;14.00;40.39;95692.78;5115843;28;19954;-72
2022/04/21 07:43:09;;;;;;;;;;;;;;;14.15;40.33;95694.69;5115794;28;19956;-72
2022/04/21 07:45:38;;;;;;;;;;;;;;;14.24;40.38;95694.97;5115859;28;19950;-73
2022/04/21 07:48:04;;;;;;;;;;;;;;;14.47;40.84;95705.09;5105109;28;19950;-73
2022/04/21 07:50:30;;;;;;;;;;;;;;;14.57;39.34;95693.78;5115176;28;19959;-72
2022/04/21 07:53:13;;;;;;;;;;;;;;;14.52;39.97;95699.03;5115454;28;19963;-72
2022/04/21 07:55:44;;;;;;;;;;;;;;;14.58;39.89;95692.72;5115516;28;20352;-73
2022/04/21 07:58:10;;;;;;;;;;;;;;;14.68;39.66;95687.47;5115683;28;19949;-73
2022/04/21 08:00:38;;;;;;;;;;;;;;;14.70;39.87;95680.09;5115398;28;19959;-73
2022/04/21 08:03:05;;;;;;;;;;;;;;;14.76;39.04;95673.75;5115409;28;20329;-73
2022/04/21 08:05:31;;;;;;;;;;;;;;;14.78;39.19;95681.38;5115288;28;19958;-73
2022/04/21 08:07:58;;;;;;;;;;;;;;;14.82;39.11;95683.25;5115320;28;19955;-72
2022/04/21 08:10:24;;;;;;;;;;;;;;;14.87;38.82;95685.13;5115207;28;19951;-73
2022/04/21 08:12:51;;;;;;;;;;;;;;;14.93;38.59;95684.06;5097329;28;19957;-73
2022/04/21 08:15:22;;;;;;;;;;;;;;;14.99;38.77;95677.72;5115341;28;19969;-73
2022/04/21 08:17:47;;;;;;;;;;;;;;;14.99;35.75;95677.72;5102815;28;19956;-73
2022/04/21 08:20:13;;;;;;;;;;;;;;;14.99;35.80;95677.72;5115446;28;19948;-73
2022/04/21 08:22:39;;;;;;;;;;;;;;;14.93;37.59;95696.44;5114977;28;19949;-73
2022/04/21 08:33:18;;;;;;;;;;;;;;;14.97;36.89;95695.69;5105937;28;20521;-74
2022/04/21 08:35:45;;;;;;;;;;;;;;;14.97;36.85;95690.41;5114508;28;19972;-72
2022/04/21 08:38:11;;;;;;;;;;;;;;;14.99;36.58;95690.94;5096825;28;19953;-73
2022/04/21 08:40:37;;;;;;;;;;;;;;;15.09;36.81;95694.63;5114585;28;20415;-72
2022/04/21 08:43:16;;;;;;;;;;;;;;;15.21;35.85;95693.28;5113965;28;19955;-72
2022/04/21 08:45:43;;;;;;;;;;;;;;;15.33;36.92;95693.00;5114530;28;20349;-73
2022/04/21 08:48:13;;;;;;;;;;;;;;;15.36;35.88;95696.97;5114648;28;19953;-72
2022/04/21 08:50:39;;;;;;;;;;;;;;;15.46;34.88;95696.97;5114489;28;19942;-73
2022/04/21 08:53:05;;;;;;;;;;;;;;;15.41;35.76;95697.75;5114295;28;20417;-73
2022/04/21 08:55:32;;;;;;;;;;;;;;;15.09;33.54;95699.91;5096469;28;19970;-73
2022/04/21 08:57:58;;;;;;;;;;;;;;;14.72;35.10;95696.44;5114388;28;19960;-73
2022/04/21 09:00:24;;;;;;;;;;;;;;;14.47;35.26;95705.09;5114351;28;19946;-74
2022/04/21 09:02:50;;;;;;;;;;;;;;;14.57;36.61;95710.41;5113725;28;19992;-73
2022/04/21 09:05:16;;;;;;;;;;;;;;;14.61;35.45;95708.03;5114358;28;19959;-75
2022/04/21 09:07:49;;;;;;;;;;;;;;;14.73;33.55;95699.88;5114291;28;19949;-73
2022/04/21 09:10:15;;;;;;;;;;;;;;;14.53;33.25;95700.59;5096512;28;19974;-73
2022/04/21 09:12:45;;;;;;;;;;;;;;;14.28;34.61;95706.59;5114451;28;19958;-73
2022/04/21 09:15:12;;;;;;;;;;;;;;;14.38;35.29;95707.44;5101379;28;19946;-73
2022/04/21 09:17:40;;;;;;;;;;;;;;;14.63;35.47;95711.19;5115025;28;19966;-73
2022/04/21 09:20:06;;;;;;;;;;;;;;;14.86;34.97;95704.63;5115785;28;19959;-72
2022/04/21 09:22:33;;;;;;;;;;;;;;;15.01;34.47;95695.91;5114333;28;19962;-73
2022/04/21 09:24:59;;;;;;;;;;;;;;;15.20;34.90;95699.63;5096395;28;19958;-72
2022/04/21 09:27:44;;;;;;;;;;;;;;;15.40;35.51;95700.66;5114028;28;20090;-73
2022/04/21 09:30:12;;;;;;;;;;;;;;;15.27;34.68;95685.38;5107475;28;20402;-73
2022/04/21 09:32:39;;;;;;;;;;;;;;;15.18;35.11;95698.28;5114320;28;19949;-72
2022/04/21 09:35:06;;;;;;;;;;;;;;;15.20;35.52;95688.25;5114028;28;20338;-73
2022/04/21 09:37:33;;;;;;;;;;;;;;;15.01;34.16;95694.09;5113899;28;19950;-73
2022/04/21 09:40:00;;;;;;;;;;;;;;;14.95;36.11;95697.78;5113870;28;19954;-73
2022/04/21 09:42:27;;;;;;;;;;;;;;;14.98;35.67;95681.41;5114031;28;20015;-73
2022/04/21 09:47:50;;;;;;;;;;;;;;;14.87;35.37;95671.91;5113927;28;19953;-73
2022/04/21 09:50:17;;;;;;;;;;;;;;;14.89;35.35;95671.63;5113751;28;19947;-72
2022/04/21 09:52:50;;;;;;;;;;;;;;;14.91;35.38;95674.78;5113814;28;19963;-73
2022/04/21 09:55:19;;;;;;;;;;;;;;;14.86;35.19;95677.44;5116956;28;19954;-73
2022/04/21 09:57:45;;;;;;;;;;;;;;;14.96;36.75;95669.53;5118285;28;20421;-73
2022/04/21 10:00:11;;;;;;;;;;;;;;;15.14;35.80;95663.72;5117986;28;19949;-73
2022/04/21 10:02:38;;;;;;;;;;;;;;;15.29;36.62;95667.41;5117494;28;20415;-73
2022/04/21 10:05:04;;;;;;;;;;;;;;;15.29;35.62;95662.13;5117669;28;20336;-73
2022/04/21 10:07:31;;;;;;;;;;;;;;;15.39;35.91;95662.88;5118282;28;19949;-72
2022/04/21 10:09:58;;;;;;;;;;;;;;;15.36;34.96;95660.78;5117590;28;19955;-73
2022/04/21 10:12:24;;;;;;;;;;;;;;;15.38;35.38;95644.66;5117579;28;19951;-74
2022/04/21 10:14:51;;;;;;;;;;;;;;;15.33;35.36;95649.94;5118054;28;19962;-72
2022/04/21 10:17:17;;;;;;;;;;;;;;;15.22;35.12;95644.69;5117427;28;20048;-72
2022/04/21 10:19:48;;;;;;;;;;;;;;;15.29;34.91;95633.84;5117394;28;20408;-73
2022/04/21 10:22:14;;;;;;;;;;;;;;;15.45;35.84;95631.94;5117342;28;19957;-72
2022/04/21 10:24:41;;;;;;;;;;;;;;;15.73;35.56;95633.22;5117762;28;19953;-72
2022/04/21 10:27:27;;;;;;;;;;;;;;;15.89;34.96;95628.66;5117203;28;19962;-71
2022/04/21 10:29:53;;;;;;;;;;;;;;;15.73;34.63;95629.81;5117137;28;20325;-72
2022/04/21 10:32:18;;;;;;;;;;;;;;;15.51;35.02;95630.09;5099313;28;19989;-73
2022/04/21 10:34:46;;;;;;;;;;;;;;;15.45;34.73;95624.03;5116906;28;20007;-73
2022/04/21 10:37:21;;;;;;;;;;;;;;;15.49;35.62;95619.00;5117193;28;19978;-71
2022/04/21 10:40:07;;;;;;;;;;;;;;;15.36;35.59;95618.50;5104443;28;19950;-71
2022/04/21 10:42:57;;;;;;;;;;;;;;;15.29;35.57;95607.44;5116951;28;19954;-72
2022/04/21 10:45:31;;;;;;;;;;;;;;;15.20;35.32;95604.56;5117399;28;19958;-70
2022/04/21 10:48:05;;;;;;;;;;;;;;;15.17;35.97;95597.16;5107502;28;19949;-72
2022/04/21 10:50:32;;;;;;;;;;;;;;;15.30;37.70;95605.56;5117363;28;19956;-72
2022/04/21 10:58:32;;;;;;;;;;;;;;;16.01;37.09;95591.31;5118199;28;19961;-72
2022/04/21 11:01:28;;;;;;;;;;;;;;;16.29;34.98;95581.09;5116687;28;20399;-71
2022/04/21 11:04:16;;;;;;;;;;;;;;;16.47;34.93;95566.44;5114365;28;19988;-71
2022/04/21 11:06:43;;;;;;;;;;;;;;;16.23;34.84;95575.03;5115740;28;19952;-72
2022/04/21 11:09:29;;;;;;;;;;;;;;;16.21;35.31;95570.03;5117441;28;20345;-72
2022/04/21 11:11:57;;;;;;;;;;;;;;;16.29;36.36;95571.28;5116430;28;19953;-72
2022/04/21 11:14:29;;;;;;;;;;;;;;;16.61;34.36;95560.22;5116499;28;19948;-73
2022/04/21 11:16:57;;;;;;;;;;;;;;;16.61;34.63;95554.94;5102480;28;20310;-72
2022/04/21 11:19:29;;;;;;;;;;;;;;;16.71;35.45;95556.66;5116844;28;19958;-72
2022/04/21 11:21:59;;;;;;;;;;;;;;;16.67;34.51;95550.34;5099009;28;19948;-72
2022/04/21 11:24:25;;;;;;;;;;;;;;;16.57;34.25;95547.81;5116175;28;19953;-73
2022/04/21 11:27:00;;;;;;;;;;;;;;;16.40;34.17;95546.34;5116000;28;19951;-72
2022/04/21 11:29:26;;;;;;;;;;;;;;;16.37;35.62;95538.97;5117059;28;19951;-72
2022/04/21 11:31:56;;;;;;;;;;;;;;;16.35;35.01;95538.44;5099983;28;20010;-72
2022/04/21 11:34:22;;;;;;;;;;;;;;;16.59;35.45;95540.41;5117370;28;19967;-73
2022/04/21 11:36:48;;;;;;;;;;;;;;;16.82;34.93;95539.69;5116539;28;19968;-73
2022/04/21 11:39:15;;;;;;;;;;;;;;;17.00;33.67;95527.56;5117422;28;19957;-72
2022/04/21 11:41:42;;;;;;;;;;;;;;;17.11;34.33;95530.09;5115313;28;19954;-72
2022/04/21 11:44:08;;;;;;;;;;;;;;;17.05;34.56;95518.78;5115985;28;19956;-72
2022/04/21 11:46:36;;;;;;;;;;;;;;;16.92;33.97;95516.78;5115431;28;19954;-72
2022/04/21 11:49:03;;;;;;;;;;;;;;;16.87;34.17;95519.50;5115992;28;19955;-73
2022/04/21 11:51:29;;;;;;;;;;;;;;;16.90;34.26;95517.06;5115776;28;19969;-73
2022/04/21 11:54:01;;;;;;;;;;;;;;;17.17;35.26;95515.75;5115916;28;20476;-72
2022/04/21 11:56:28;;;;;;;;;;;;;;;17.57;34.16;95514.44;5115879;28;20352;-73
2022/04/21 11:58:53;;;;;;;;;;;;;;;17.71;34.03;95517.19;5115766;28;19957;-73
2022/04/21 12:06:51;;;;;;;;;;;;;;;18.27;32.30;95510.31;5116014;28;20026;-74
2022/04/21 12:09:17;;;;;;;;;;;;;;;17.91;31.81;95510.88;5116039;28;19950;-74
2022/04/21 12:11:51;;;;;;;;;;;;;;;17.53;33.12;95505.47;5115235;28;20348;-73
2022/04/21 12:14:18;;;;;;;;;;;;;;;17.50;33.67;95502.63;5115219;28;19969;-74
2022/04/21 12:16:50;;;;;;;;;;;;;;;17.55;33.36;95497.25;5115016;28;19978;-74
2022/04/21 12:19:16;;;;;;;;;;;;;;;17.74;32.64;95506.00;5115124;28;19950;-74
2022/04/21 12:21:56;;;;;;;;;;;;;;;17.91;33.15;95505.56;5115363;28;19953;-73
2022/04/21 12:24:26;;;;;;;;;;;;;;;18.10;33.88;95499.44;5115321;28;19966;-74
2022/04/21 12:27:36;;;;;;;;;;;;;;;18.42;33.09;95504.75;5082735;28;19958;-74
2022/04/21 12:30:04;;;;;;;;;;;;;;;17.99;32.66;95504.88;5114888;28;19956;-74
2022/04/21 12:32:30;;;;;;;;;;;;;;;17.69;33.08;95505.31;5114890;28;19956;-74
2022/04/21 12:35:06;;;;;;;;;;;;;;;17.85;33.78;95496.88;5114889;28;19975;-74
2022/04/21 12:37:33;;;;;;;;;;;;;;;17.76;32.77;95492.47;5114803;28;19973;-74
2022/04/21 12:40:00;;;;;;;;;;;;;;;17.55;33.32;95487.44;5079767;28;19954;-74
2022/04/21 12:42:28;;;;;;;;;;;;;;;17.51;33.56;95502.31;5114835;28;19949;-74
2022/04/21 12:44:54;;;;;;;;;;;;;;;17.58;33.46;95486.09;5114670;28;20332;-73
2022/04/21 12:47:21;;;;;;;;;;;;;;;17.59;34.06;95485.78;5114555;28;19954;-73
2022/04/21 12:49:55;;;;;;;;;;;;;;;17.92;34.17;95487.78;5114501;28;19959;-74
2022/04/21 12:52:32;;;;;;;;;;;;;;;17.83;33.46;95474.38;5102050;28;19950;-73
2022/04/21 12:54:58;;;;;;;;;;;;;;;17.72;33.48;95471.03;5115312;28;20411;-74
2022/04/21 12:57:24;;;;;;;;;;;;;;;17.69;33.30;95473.47;5097042;28;20340;-74
2022/04/21 12:59:50;;;;;;;;;;;;;;;17.58;33.54;95481.56;5097817;28;19953;-73
2022/04/21 13:02:18;;;;;;;;;;;;;;;17.34;33.54;95465.72;5096372;28;19951;-74
2022/04/21 13:04:45;;;;;;;;;;;;;;;17.19;33.90;95465.91;5113887;28;19984;-72
2022/04/21 13:07:11;;;;;;;;;;;;;;;17.55;35.25;95471.53;5115699;28;19959;-74
2022/04/21 13:09:37;;;;;;;;;;;;;;;18.02;34.97;95463.75;5114042;28;19956;-73
2022/04/21 13:12:03;;;;;;;;;;;;;;;18.29;33.84;95454.28;5114117;28;19950;-74
2022/04/21 13:14:29;;;;;;;;;;;;;;;18.29;34.25;95460.41;5114179;28;19952;-74
2022/04/21 13:16:55;;;;;;;;;;;;;;;18.34;34.08;95451.56;5113853;28;19971;-74
2022/04/21 13:19:21;;;;;;;;;;;;;;;18.29;33.83;95447.13;5114235;28;19954;-74
2022/04/21 13:21:55;;;;;;;;;;;;;;;18.15;34.03;95446.31;5113958;28;20001;-74
2022/04/21 13:24:31;;;;;;;;;;;;;;;17.91;34.12;95454.34;5114649;28;20413;-74
2022/04/21 13:26:57;;;;;;;;;;;;;;;17.90;33.48;95448.25;5114069;28;20323;-74
2022/04/21 13:29:24;;;;;;;;;;;;;;;18.02;33.14;95443.31;5114024;28;19949;-74
2022/04/21 13:34:53;;;;;;;;;;;;;;;18.21;34.16;95431.88;5114396;28;19956;-75
2022/04/21 13:37:19;;;;;;;;;;;;;;;18.41;33.83;95422.75;5113843;28;20331;-74
2022/04/21 13:39:45;;;;;;;;;;;;;;;18.63;33.63;95422.09;5113739;28;19951;-73
2022/04/21 13:42:11;;;;;;;;;;;;;;;18.57;33.96;95420.63;5113938;28;20406;-74
2022/04/21 13:44:36;;;;;;;;;;;;;;;18.61;33.79;95421.63;5114163;28;19996;-75
2022/04/21 13:47:05;;;;;;;;;;;;;;;18.41;32.42;95420.09;5113854;28;20404;-75